sensor_id;sensor_type;location;lat;lon;timestamp;temperature;humidity
41644;DHT22;44236;48.098;11.582;2023-03-23T00:02:23;20.80;46.80
41644;DHT22;44236;48.098;11.582;2023-03-23T00:04:48;20.80;46.80
41644;DHT22;44236;48.098;11.582;2023-03-23T00:07:14;20.80;46.70
41644;DHT22;44236;48.098;11.582;2023-03-23T00:09:49;20.70;46.80
41644;DHT22;44236;48.098;11.582;2023-03-23T00:12:27;20.70;46.90
41644;DHT22;44236;48.098;11.582;2023-03-23T00:17:27;20.70;46.60
41644;DHT22;44236;48.098;11.582;2023-03-23T00:19:52;20.70;46.90
41644;DHT22;44236;48.098;11.582;2023-03-23T00:22:18;20.70;47.10
41644;DHT22;44236;48.098;11.582;2023-03-23T00:24:47;20.70;46.80
41644;DHT22;44236;48.098;11.582;2023-03-23T00:27:13;20.80;47.10
41644;DHT22;44236;48.098;11.582;2023-03-23T00:29:40;20.70;47.00
41644;DHT22;44236;48.098;11.582;2023-03-23T00:32:07;20.70;46.80
41644;DHT22;44236;48.098;11.582;2023-03-23T00:34:39;20.70;46.90
41644;DHT22;44236;48.098;11.582;2023-03-23T00:37:07;20.70;47.10
41644;DHT22;44236;48.098;11.582;2023-03-23T00:39:34;20.70;46.80
41644;DHT22;44236;48.098;11.582;2023-03-23T00:42:02;20.70;47.00
41644;DHT22;44236;48.098;11.582;2023-03-23T00:44:32;20.70;47.00
41644;DHT22;44236;48.098;11.582;2023-03-23T00:47:00;20.70;46.90
41644;DHT22;44236;48.098;11.582;2023-03-23T00:49:26;20.60;46.90
41644;DHT22;44236;48.098;11.582;2023-03-23T00:51:57;20.60;46.80
41644;DHT22;44236;48.098;11.582;2023-03-23T00:54:24;20.70;47.00
41644;DHT22;44236;48.098;11.582;2023-03-23T00:56:50;20.70;47.00
41644;DHT22;44236;48.098;11.582;2023-03-23T00:59:16;20.70;46.90
41644;DHT22;44236;48.098;11.582;2023-03-23T01:01:43;20.60;46.60
41644;DHT22;44236;48.098;11.582;2023-03-23T01:04:12;20.60;46.70
41644;DHT22;44236;48.098;11.582;2023-03-23T01:06:41;20.60;46.90
41644;DHT22;44236;48.098;11.582;2023-03-23T01:09:09;20.60;46.90
41644;DHT22;44236;48.098;11.582;2023-03-23T01:11:36;20.60;47.00
41644;DHT22;44236;48.098;11.582;2023-03-23T01:14:03;20.60;46.90
41644;DHT22;44236;48.098;11.582;2023-03-23T01:16:29;20.60;46.90
41644;DHT22;44236;48.098;11.582;2023-03-23T01:18:55;20.60;47.00
41644;DHT22;44236;48.098;11.582;2023-03-23T01:21:21;20.50;47.10
41644;DHT22;44236;48.098;11.582;2023-03-23T01:23:47;20.50;47.20
41644;DHT22;44236;48.098;11.582;2023-03-23T01:26:16;20.60;46.80
41644;DHT22;44236;48.098;11.582;2023-03-23T01:28:43;20.60;46.60
41644;DHT22;44236;48.098;11.582;2023-03-23T01:31:12;20.60;46.40
41644;DHT22;44236;48.098;11.582;2023-03-23T01:33:39;20.60;46.30
41644;DHT22;44236;48.098;11.582;2023-03-23T01:36:16;20.50;46.10
41644;DHT22;44236;48.098;11.582;2023-03-23T01:38:44;20.50;46.10
41644;DHT22;44236;48.098;11.582;2023-03-23T01:41:11;20.50;46.00
41644;DHT22;44236;48.098;11.582;2023-03-23T01:44:03;20.40;46.00
41644;DHT22;44236;48.098;11.582;2023-03-23T01:46:32;20.50;46.00
41644;DHT22;44236;48.098;11.582;2023-03-23T01:49:09;20.40;45.70
41644;DHT22;44236;48.098;11.582;2023-03-23T01:51:47;20.40;45.60
41644;DHT22;44236;48.098;11.582;2023-03-23T01:54:15;20.40;45.70
41644;DHT22;44236;48.098;11.582;2023-03-23T01:56:50;20.40;45.60
41644;DHT22;44236;48.098;11.582;2023-03-23T01:59:17;20.40;45.60
41644;DHT22;44236;48.098;11.582;2023-03-23T02:01:46;20.40;45.50
41644;DHT22;44236;48.098;11.582;2023-03-23T02:04:13;20.40;45.50
41644;DHT22;44236;48.098;11.582;2023-03-23T02:06:40;20.30;45.40
41644;DHT22;44236;48.098;11.582;2023-03-23T02:09:06;20.30;45.50
41644;DHT22;44236;48.098;11.582;2023-03-23T02:11:32;20.30;45.40
41644;DHT22;44236;48.098;11.582;2023-03-23T02:13:58;20.30;45.30
41644;DHT22;44236;48.098;11.582;2023-03-23T02:16:44;20.30;45.30
41644;DHT22;44236;48.098;11.582;2023-03-23T02:25:17;20.30;45.40
41644;DHT22;44236;48.098;11.582;2023-03-23T02:35:50;20.20;45.20
41644;DHT22;44236;48.098;11.582;2023-03-23T02:38:21;20.20;45.20
41644;DHT22;44236;48.098;11.582;2023-03-23T02:40:49;20.20;45.20
41644;DHT22;44236;48.098;11.582;2023-03-23T02:43:20;20.20;45.30
41644;DHT22;44236;48.098;11.582;2023-03-23T02:45:46;20.20;45.20
41644;DHT22;44236;48.098;11.582;2023-03-23T02:48:14;20.20;45.20
41644;DHT22;44236;48.098;11.582;2023-03-23T02:50:45;20.20;45.20
41644;DHT22;44236;48.098;11.582;2023-03-23T02:53:13;20.10;45.10
41644;DHT22;44236;48.098;11.582;2023-03-23T02:55:42;20.20;45.20
41644;DHT22;44236;48.098;11.582;2023-03-23T02:58:09;20.10;45.00
41644;DHT22;44236;48.098;11.582;2023-03-23T03:00:35;20.10;45.10
41644;DHT22;44236;48.098;11.582;2023-03-23T03:03:04;20.10;45.00
41644;DHT22;44236;48.098;11.582;2023-03-23T03:08:31;20.10;45.10
41644;DHT22;44236;48.098;11.582;2023-03-23T03:11:05;20.10;45.10
41644;DHT22;44236;48.098;11.582;2023-03-23T03:16:24;20.00;44.90
41644;DHT22;44236;48.098;11.582;2023-03-23T03:21:27;20.00;45.10
41644;DHT22;44236;48.098;11.582;2023-03-23T03:23:56;20.00;45.00
41644;DHT22;44236;48.098;11.582;2023-03-23T03:26:27;20.00;45.00
41644;DHT22;44236;48.098;11.582;2023-03-23T03:28:54;20.00;45.00
41644;DHT22;44236;48.098;11.582;2023-03-23T03:31:32;20.00;44.90
41644;DHT22;44236;48.098;11.582;2023-03-23T03:33:59;20.00;44.90
41644;DHT22;44236;48.098;11.582;2023-03-23T03:36:29;20.00;45.00
41644;DHT22;44236;48.098;11.582;2023-03-23T03:39:05;20.00;45.00
41644;DHT22;44236;48.098;11.582;2023-03-23T03:41:33;20.00;45.00
41644;DHT22;44236;48.098;11.582;2023-03-23T03:44:00;20.00;45.00
41644;DHT22;44236;48.098;11.582;2023-03-23T03:46:25;20.00;45.00
41644;DHT22;44236;48.098;11.582;2023-03-23T03:48:55;20.00;45.00
41644;DHT22;44236;48.098;11.582;2023-03-23T03:51:22;19.90;44.90
41644;DHT22;44236;48.098;11.582;2023-03-23T03:53:47;19.90;45.00
41644;DHT22;44236;48.098;11.582;2023-03-23T03:56:13;20.00;45.00
41644;DHT22;44236;48.098;11.582;2023-03-23T03:58:39;19.90;44.90
41644;DHT22;44236;48.098;11.582;2023-03-23T04:01:10;19.90;45.00
41644;DHT22;44236;48.098;11.582;2023-03-23T04:03:37;19.90;44.90
41644;DHT22;44236;48.098;11.582;2023-03-23T04:06:03;19.90;45.00
41644;DHT22;44236;48.098;11.582;2023-03-23T04:08:29;19.90;45.00
41644;DHT22;44236;48.098;11.582;2023-03-23T04:10:55;19.90;44.90
41644;DHT22;44236;48.098;11.582;2023-03-23T04:13:22;19.90;44.90
41644;DHT22;44236;48.098;11.582;2023-03-23T04:15:48;19.90;44.80
41644;DHT22;44236;48.098;11.582;2023-03-23T04:18:15;19.90;44.80
41644;DHT22;44236;48.098;11.582;2023-03-23T04:20:46;19.90;44.80
41644;DHT22;44236;48.098;11.582;2023-03-23T04:23:14;19.90;44.90
41644;DHT22;44236;48.098;11.582;2023-03-23T04:25:45;19.90;44.80
41644;DHT22;44236;48.098;11.582;2023-03-23T04:28:12;19.80;44.80
41644;DHT22;44236;48.098;11.582;2023-03-23T04:30:38;19.80;44.80
41644;DHT22;44236;48.098;11.582;2023-03-23T04:33:09;19.80;44.90
41644;DHT22;44236;48.098;11.582;2023-03-23T04:35:41;19.80;44.80
41644;DHT22;44236;48.098;11.582;2023-03-23T04:38:07;19.80;44.80
41644;DHT22;44236;48.098;11.582;2023-03-23T04:40:38;19.80;44.80
41644;DHT22;44236;48.098;11.582;2023-03-23T04:43:05;19.80;45.30
41644;DHT22;44236;48.098;11.582;2023-03-23T04:45:35;19.80;44.80
41644;DHT22;44236;48.098;11.582;2023-03-23T04:48:03;19.80;44.90
41644;DHT22;44236;48.098;11.582;2023-03-23T04:50:31;19.80;44.80
41644;DHT22;44236;48.098;11.582;2023-03-23T04:52:59;19.80;44.80
41644;DHT22;44236;48.098;11.582;2023-03-23T04:55:30;19.80;44.70
41644;DHT22;44236;48.098;11.582;2023-03-23T04:57:57;19.80;44.80
41644;DHT22;44236;48.098;11.582;2023-03-23T05:00:27;19.80;44.60
41644;DHT22;44236;48.098;11.582;2023-03-23T05:02:52;19.90;44.80
41644;DHT22;44236;48.098;11.582;2023-03-23T05:05:20;19.90;44.80
41644;DHT22;44236;48.098;11.582;2023-03-23T05:07:47;19.90;44.70
41644;DHT22;44236;48.098;11.582;2023-03-23T05:10:13;19.90;44.70
41644;DHT22;44236;48.098;11.582;2023-03-23T05:12:41;19.90;44.70
41644;DHT22;44236;48.098;11.582;2023-03-23T05:15:07;19.80;43.70
41644;DHT22;44236;48.098;11.582;2023-03-23T05:17:33;19.60;42.60
41644;DHT22;44236;48.098;11.582;2023-03-23T05:20:00;19.40;43.00
41644;DHT22;44236;48.098;11.582;2023-03-23T05:22:29;19.50;43.80
41644;DHT22;44236;48.098;11.582;2023-03-23T05:24:58;19.50;44.10
41644;DHT22;44236;48.098;11.582;2023-03-23T05:27:24;19.60;44.20
41644;DHT22;44236;48.098;11.582;2023-03-23T05:29:53;19.70;44.10
41644;DHT22;44236;48.098;11.582;2023-03-23T05:32:19;19.70;44.10
41644;DHT22;44236;48.098;11.582;2023-03-23T05:34:45;19.80;44.10
41644;DHT22;44236;48.098;11.582;2023-03-23T05:37:12;19.80;44.00
41644;DHT22;44236;48.098;11.582;2023-03-23T05:39:39;19.80;44.00
41644;DHT22;44236;48.098;11.582;2023-03-23T05:42:05;19.90;44.00
41644;DHT22;44236;48.098;11.582;2023-03-23T05:44:31;19.90;44.00
41644;DHT22;44236;48.098;11.582;2023-03-23T05:46:57;19.90;44.00
41644;DHT22;44236;48.098;11.582;2023-03-23T05:49:23;19.90;44.00
41644;DHT22;44236;48.098;11.582;2023-03-23T05:51:49;20.00;44.10
41644;DHT22;44236;48.098;11.582;2023-03-23T05:54:16;20.00;44.10
41644;DHT22;44236;48.098;11.582;2023-03-23T05:56:41;20.00;44.10
41644;DHT22;44236;48.098;11.582;2023-03-23T05:59:08;20.00;44.10
41644;DHT22;44236;48.098;11.582;2023-03-23T06:01:34;20.00;44.20
41644;DHT22;44236;48.098;11.582;2023-03-23T06:04:00;20.00;44.20
41644;DHT22;44236;48.098;11.582;2023-03-23T06:06:27;20.00;44.30
41644;DHT22;44236;48.098;11.582;2023-03-23T06:08:55;20.00;44.20
41644;DHT22;44236;48.098;11.582;2023-03-23T06:11:21;20.00;44.20
41644;DHT22;44236;48.098;11.582;2023-03-23T06:13:47;20.00;44.20
41644;DHT22;44236;48.098;11.582;2023-03-23T06:16:13;20.00;44.20
41644;DHT22;44236;48.098;11.582;2023-03-23T06:18:40;20.10;44.30
41644;DHT22;44236;48.098;11.582;2023-03-23T06:21:06;20.10;44.20
41644;DHT22;44236;48.098;11.582;2023-03-23T06:23:33;20.10;44.40
41644;DHT22;44236;48.098;11.582;2023-03-23T06:26:04;20.10;44.40
41644;DHT22;44236;48.098;11.582;2023-03-23T06:28:31;20.10;44.20
41644;DHT22;44236;48.098;11.582;2023-03-23T06:31:01;20.20;44.50
41644;DHT22;44236;48.098;11.582;2023-03-23T06:33:29;20.10;44.50
41644;DHT22;44236;48.098;11.582;2023-03-23T06:35:55;20.10;44.40
41644;DHT22;44236;48.098;11.582;2023-03-23T06:38:21;20.20;44.40
41644;DHT22;44236;48.098;11.582;2023-03-23T06:40:47;20.20;44.60
41644;DHT22;44236;48.098;11.582;2023-03-23T06:43:13;20.20;44.60
41644;DHT22;44236;48.098;11.582;2023-03-23T06:45:39;20.20;44.60
41644;DHT22;44236;48.098;11.582;2023-03-23T06:48:06;20.20;44.70
41644;DHT22;44236;48.098;11.582;2023-03-23T06:50:32;20.20;44.70
41644;DHT22;44236;48.098;11.582;2023-03-23T06:52:58;20.20;44.70
41644;DHT22;44236;48.098;11.582;2023-03-23T06:55:23;20.20;44.60
41644;DHT22;44236;48.098;11.582;2023-03-23T06:57:49;20.10;44.20
41644;DHT22;44236;48.098;11.582;2023-03-23T07:00:15;20.20;44.90
41644;DHT22;44236;48.098;11.582;2023-03-23T07:02:41;20.10;45.10
41644;DHT22;44236;48.098;11.582;2023-03-23T07:05:11;20.10;44.90
41644;DHT22;44236;48.098;11.582;2023-03-23T07:07:38;20.10;45.00
41644;DHT22;44236;48.098;11.582;2023-03-23T07:10:06;20.10;44.90
41644;DHT22;44236;48.098;11.582;2023-03-23T07:12:32;20.20;45.20
41644;DHT22;44236;48.098;11.582;2023-03-23T07:14:58;20.20;45.20
41644;DHT22;44236;48.098;11.582;2023-03-23T07:17:24;20.10;45.30
41644;DHT22;44236;48.098;11.582;2023-03-23T07:19:50;20.10;45.30
41644;DHT22;44236;48.098;11.582;2023-03-23T07:22:16;20.10;45.40
41644;DHT22;44236;48.098;11.582;2023-03-23T07:24:42;20.20;45.50
41644;DHT22;44236;48.098;11.582;2023-03-23T07:27:08;20.10;45.50
41644;DHT22;44236;48.098;11.582;2023-03-23T07:29:34;20.20;45.50
41644;DHT22;44236;48.098;11.582;2023-03-23T07:32:04;20.10;45.50
41644;DHT22;44236;48.098;11.582;2023-03-23T07:34:30;20.10;45.60
41644;DHT22;44236;48.098;11.582;2023-03-23T07:36:57;20.10;45.60
41644;DHT22;44236;48.098;11.582;2023-03-23T07:39:22;20.10;45.60
41644;DHT22;44236;48.098;11.582;2023-03-23T07:41:49;20.20;45.80
41644;DHT22;44236;48.098;11.582;2023-03-23T07:44:15;20.10;45.70
41644;DHT22;44236;48.098;11.582;2023-03-23T07:46:41;20.20;45.80
41644;DHT22;44236;48.098;11.582;2023-03-23T07:49:08;20.20;45.90
41644;DHT22;44236;48.098;11.582;2023-03-23T07:51:34;20.20;45.90
41644;DHT22;44236;48.098;11.582;2023-03-23T07:54:00;20.20;45.80
41644;DHT22;44236;48.098;11.582;2023-03-23T07:56:28;20.20;45.90
41644;DHT22;44236;48.098;11.582;2023-03-23T07:58:54;20.20;45.90
41644;DHT22;44236;48.098;11.582;2023-03-23T08:01:20;20.20;45.90
41644;DHT22;44236;48.098;11.582;2023-03-23T08:03:46;20.20;45.70
41644;DHT22;44236;48.098;11.582;2023-03-23T08:06:12;20.20;45.80
41644;DHT22;44236;48.098;11.582;2023-03-23T08:08:38;20.20;45.80
41644;DHT22;44236;48.098;11.582;2023-03-23T08:11:06;20.20;45.80
41644;DHT22;44236;48.098;11.582;2023-03-23T08:13:32;20.20;45.90
41644;DHT22;44236;48.098;11.582;2023-03-23T08:15:59;20.20;45.90
41644;DHT22;44236;48.098;11.582;2023-03-23T08:18:25;20.10;45.80
41644;DHT22;44236;48.098;11.582;2023-03-23T08:20:52;20.20;45.90
41644;DHT22;44236;48.098;11.582;2023-03-23T08:23:19;20.20;45.80
41644;DHT22;44236;48.098;11.582;2023-03-23T08:25:45;20.20;45.90
41644;DHT22;44236;48.098;11.582;2023-03-23T08:28:11;20.10;45.80
41644;DHT22;44236;48.098;11.582;2023-03-23T08:30:40;20.20;45.80
41644;DHT22;44236;48.098;11.582;2023-03-23T08:33:06;20.20;45.80
41644;DHT22;44236;48.098;11.582;2023-03-23T08:35:32;20.10;45.80
41644;DHT22;44236;48.098;11.582;2023-03-23T08:37:58;20.10;45.80
41644;DHT22;44236;48.098;11.582;2023-03-23T08:40:24;20.10;45.80
41644;DHT22;44236;48.098;11.582;2023-03-23T08:42:52;20.10;45.80
41644;DHT22;44236;48.098;11.582;2023-03-23T08:45:21;20.10;45.80
41644;DHT22;44236;48.098;11.582;2023-03-23T08:47:48;20.30;45.90
41644;DHT22;44236;48.098;11.582;2023-03-23T08:50:19;20.10;45.80
41644;DHT22;44236;48.098;11.582;2023-03-23T08:52:45;20.10;45.80
41644;DHT22;44236;48.098;11.582;2023-03-23T08:55:11;20.10;45.90
41644;DHT22;44236;48.098;11.582;2023-03-23T08:57:38;20.10;45.80
41644;DHT22;44236;48.098;11.582;2023-03-23T09:00:06;20.10;45.80
41644;DHT22;44236;48.098;11.582;2023-03-23T09:02:45;20.10;45.80
41644;DHT22;44236;48.098;11.582;2023-03-23T09:05:13;20.10;45.80
41644;DHT22;44236;48.098;11.582;2023-03-23T09:07:40;20.10;45.80
41644;DHT22;44236;48.098;11.582;2023-03-23T09:10:07;20.10;45.90
41644;DHT22;44236;48.098;11.582;2023-03-23T09:12:33;20.10;46.00
41644;DHT22;44236;48.098;11.582;2023-03-23T09:14:59;20.90;46.50
41644;DHT22;44236;48.098;11.582;2023-03-23T09:17:25;20.10;46.20
41644;DHT22;44236;48.098;11.582;2023-03-23T09:19:51;20.10;46.10
41644;DHT22;44236;48.098;11.582;2023-03-23T09:22:16;20.10;46.10
41644;DHT22;44236;48.098;11.582;2023-03-23T09:24:45;20.10;46.00
41644;DHT22;44236;48.098;11.582;2023-03-23T09:27:12;20.10;46.00
41644;DHT22;44236;48.098;11.582;2023-03-23T09:29:37;20.10;46.10
41644;DHT22;44236;48.098;11.582;2023-03-23T09:32:03;20.10;46.10
41644;DHT22;44236;48.098;11.582;2023-03-23T09:34:29;20.10;45.60
41644;DHT22;44236;48.098;11.582;2023-03-23T09:36:55;20.10;46.00
41644;DHT22;44236;48.098;11.582;2023-03-23T09:39:21;20.10;45.90
41644;DHT22;44236;48.098;11.582;2023-03-23T09:44:53;20.10;45.90
41644;DHT22;44236;48.098;11.582;2023-03-23T09:50:19;20.10;45.90
41644;DHT22;44236;48.098;11.582;2023-03-23T09:52:55;20.10;45.90
41644;DHT22;44236;48.098;11.582;2023-03-23T09:55:21;20.10;46.00
41644;DHT22;44236;48.098;11.582;2023-03-23T10:03:17;20.10;45.80
41644;DHT22;44236;48.098;11.582;2023-03-23T10:05:53;20.10;46.00
41644;DHT22;44236;48.098;11.582;2023-03-23T10:08:29;20.10;45.90
41644;DHT22;44236;48.098;11.582;2023-03-23T10:11:03;20.10;45.80
41644;DHT22;44236;48.098;11.582;2023-03-23T10:15:55;20.10;45.90
41644;DHT22;44236;48.098;11.582;2023-03-23T10:21:03;20.10;45.80
41644;DHT22;44236;48.098;11.582;2023-03-23T10:23:50;20.20;45.90
41644;DHT22;44236;48.098;11.582;2023-03-23T10:29:25;20.10;45.80
41644;DHT22;44236;48.098;11.582;2023-03-23T10:31:59;20.10;45.90
41644;DHT22;44236;48.098;11.582;2023-03-23T10:34:40;20.10;45.90
41644;DHT22;44236;48.098;11.582;2023-03-23T10:39:48;20.10;45.90
41644;DHT22;44236;48.098;11.582;2023-03-23T10:44:50;20.10;45.80
41644;DHT22;44236;48.098;11.582;2023-03-23T10:47:17;20.10;45.80
41644;DHT22;44236;48.098;11.582;2023-03-23T10:49:51;20.10;45.80
41644;DHT22;44236;48.098;11.582;2023-03-23T10:52:38;20.10;45.80
41644;DHT22;44236;48.098;11.582;2023-03-23T10:55:15;20.10;45.80
41644;DHT22;44236;48.098;11.582;2023-03-23T10:57:44;20.10;45.80
41644;DHT22;44236;48.098;11.582;2023-03-23T11:00:23;20.10;45.80
41644;DHT22;44236;48.098;11.582;2023-03-23T11:08:13;20.10;45.80
41644;DHT22;44236;48.098;11.582;2023-03-23T11:10:48;20.10;45.80
41644;DHT22;44236;48.098;11.582;2023-03-23T11:13:16;20.10;45.80
41644;DHT22;44236;48.098;11.582;2023-03-23T11:15:44;20.10;45.80
41644;DHT22;44236;48.098;11.582;2023-03-23T11:20:46;20.10;45.80
41644;DHT22;44236;48.098;11.582;2023-03-23T11:23:22;20.10;45.90
41644;DHT22;44236;48.098;11.582;2023-03-23T11:26:20;20.30;46.00
41644;DHT22;44236;48.098;11.582;2023-03-23T11:29:10;20.10;45.80
41644;DHT22;44236;48.098;11.582;2023-03-23T11:31:43;20.10;45.80
41644;DHT22;44236;48.098;11.582;2023-03-23T11:36:38;20.10;45.90
41644;DHT22;44236;48.098;11.582;2023-03-23T11:42:01;20.20;45.90
41644;DHT22;44236;48.098;11.582;2023-03-23T11:44:39;20.10;46.00
41644;DHT22;44236;48.098;11.582;2023-03-23T11:52:49;20.20;45.90
41644;DHT22;44236;48.098;11.582;2023-03-23T11:55:26;20.20;45.90
41644;DHT22;44236;48.098;11.582;2023-03-23T11:57:53;20.20;45.90
41644;DHT22;44236;48.098;11.582;2023-03-23T12:00:21;20.20;45.90
41644;DHT22;44236;48.098;11.582;2023-03-23T12:14:14;20.20;45.90
41644;DHT22;44236;48.098;11.582;2023-03-23T12:19:53;20.20;45.90
41644;DHT22;44236;48.098;11.582;2023-03-23T12:31:05;20.20;45.90
41644;DHT22;44236;48.098;11.582;2023-03-23T12:41:51;20.30;45.90
41644;DHT22;44236;48.098;11.582;2023-03-23T12:44:25;20.30;45.90
41644;DHT22;44236;48.098;11.582;2023-03-23T12:47:21;20.30;46.00
41644;DHT22;44236;48.098;11.582;2023-03-23T12:49:59;20.30;45.90
41644;DHT22;44236;48.098;11.582;2023-03-23T12:52:38;20.30;45.90
41644;DHT22;44236;48.098;11.582;2023-03-23T12:58:03;20.30;45.90
41644;DHT22;44236;48.098;11.582;2023-03-23T13:03:24;20.30;45.90
41644;DHT22;44236;48.098;11.582;2023-03-23T13:06:05;20.30;45.90
41644;DHT22;44236;48.098;11.582;2023-03-23T13:08:55;20.30;45.90
41644;DHT22;44236;48.098;11.582;2023-03-23T13:11:30;20.30;46.00
41644;DHT22;44236;48.098;11.582;2023-03-23T13:14:20;20.30;45.90
41644;DHT22;44236;48.098;11.582;2023-03-23T13:22:38;20.30;45.90
41644;DHT22;44236;48.098;11.582;2023-03-23T13:25:10;20.30;45.90
41644;DHT22;44236;48.098;11.582;2023-03-23T13:27:39;20.30;45.90
41644;DHT22;44236;48.098;11.582;2023-03-23T13:30:18;20.30;46.00
41644;DHT22;44236;48.098;11.582;2023-03-23T13:32:48;20.30;45.90
41644;DHT22;44236;48.098;11.582;2023-03-23T13:35:17;20.30;46.00
41644;DHT22;44236;48.098;11.582;2023-03-23T13:37:49;20.30;45.90
41644;DHT22;44236;48.098;11.582;2023-03-23T13:40:20;20.30;45.90
41644;DHT22;44236;48.098;11.582;2023-03-23T13:42:51;20.30;45.90
41644;DHT22;44236;48.098;11.582;2023-03-23T13:45:36;20.30;45.90
41644;DHT22;44236;48.098;11.582;2023-03-23T13:51:00;20.30;45.90
41644;DHT22;44236;48.098;11.582;2023-03-23T13:53:47;20.30;45.90
41644;DHT22;44236;48.098;11.582;2023-03-23T13:59:16;20.30;45.90
41644;DHT22;44236;48.098;11.582;2023-03-23T14:01:43;20.30;45.90
41644;DHT22;44236;48.098;11.582;2023-03-23T14:04:17;20.30;45.50
41644;DHT22;44236;48.098;11.582;2023-03-23T14:06:48;20.30;45.90
41644;DHT22;44236;48.098;11.582;2023-03-23T14:11:58;20.40;45.90
41644;DHT22;44236;48.098;11.582;2023-03-23T14:14:28;20.30;45.90
41644;DHT22;44236;48.098;11.582;2023-03-23T14:17:15;20.40;45.90
41644;DHT22;44236;48.098;11.582;2023-03-23T14:20:04;20.30;45.90
41644;DHT22;44236;48.098;11.582;2023-03-23T14:22:36;20.30;45.80
41644;DHT22;44236;48.098;11.582;2023-03-23T14:25:15;20.30;45.80
41644;DHT22;44236;48.098;11.582;2023-03-23T14:27:42;20.40;45.90
41644;DHT22;44236;48.098;11.582;2023-03-23T14:30:14;20.40;46.00
41644;DHT22;44236;48.098;11.582;2023-03-23T14:32:40;20.30;45.90
41644;DHT22;44236;48.098;11.582;2023-03-23T14:35:31;20.30;45.90
41644;DHT22;44236;48.098;11.582;2023-03-23T14:37:57;20.30;45.90
41644;DHT22;44236;48.098;11.582;2023-03-23T14:40:26;20.30;45.90
41644;DHT22;44236;48.098;11.582;2023-03-23T14:42:52;20.30;45.80
41644;DHT22;44236;48.098;11.582;2023-03-23T14:45:21;20.30;45.90
41644;DHT22;44236;48.098;11.582;2023-03-23T14:47:53;20.30;45.90
41644;DHT22;44236;48.098;11.582;2023-03-23T14:52:49;20.40;45.90
41644;DHT22;44236;48.098;11.582;2023-03-23T14:55:21;20.30;45.90
41644;DHT22;44236;48.098;11.582;2023-03-23T14:57:48;20.30;45.90
41644;DHT22;44236;48.098;11.582;2023-03-23T15:00:29;20.30;45.90
41644;DHT22;44236;48.098;11.582;2023-03-23T15:02:57;20.40;45.80
41644;DHT22;44236;48.098;11.582;2023-03-23T15:05:30;20.30;43.10
41644;DHT22;44236;48.098;11.582;2023-03-23T15:08:24;20.20;42.20
41644;DHT22;44236;48.098;11.582;2023-03-23T15:10:53;20.10;43.00
41644;DHT22;44236;48.098;11.582;2023-03-23T15:13:19;20.00;44.00
41644;DHT22;44236;48.098;11.582;2023-03-23T15:15:45;20.10;44.30
41644;DHT22;44236;48.098;11.582;2023-03-23T15:18:38;20.10;44.70
41644;DHT22;44236;48.098;11.582;2023-03-23T15:22:13;20.20;45.00
41644;DHT22;44236;48.098;11.582;2023-03-23T15:24:23;20.20;45.10
41644;DHT22;44236;48.098;11.582;2023-03-23T15:26:49;20.20;45.30
41644;DHT22;44236;48.098;11.582;2023-03-23T15:29:19;20.30;45.90
41644;DHT22;44236;48.098;11.582;2023-03-23T15:31:51;20.30;45.50
41644;DHT22;44236;48.098;11.582;2023-03-23T15:34:33;20.30;45.60
41644;DHT22;44236;48.098;11.582;2023-03-23T15:37:15;20.30;45.70
41644;DHT22;44236;48.098;11.582;2023-03-23T15:39:43;20.30;45.70
41644;DHT22;44236;48.098;11.582;2023-03-23T15:42:21;20.30;45.60
41644;DHT22;44236;48.098;11.582;2023-03-23T15:47:47;20.30;45.90
41644;DHT22;44236;48.098;11.582;2023-03-23T15:50:36;20.30;45.90
41644;DHT22;44236;48.098;11.582;2023-03-23T15:53:32;20.30;46.60
41644;DHT22;44236;48.098;11.582;2023-03-23T15:56:03;20.30;46.40
41644;DHT22;44236;48.098;11.582;2023-03-23T15:58:30;20.40;46.00
41644;DHT22;44236;48.098;11.582;2023-03-23T16:00:56;20.40;46.10
41644;DHT22;44236;48.098;11.582;2023-03-23T16:03:24;20.40;46.40
41644;DHT22;44236;48.098;11.582;2023-03-23T16:05:55;20.40;46.30
41644;DHT22;44236;48.098;11.582;2023-03-23T16:08:23;20.40;46.20
41644;DHT22;44236;48.098;11.582;2023-03-23T16:10:49;20.50;46.00
41644;DHT22;44236;48.098;11.582;2023-03-23T16:13:15;20.50;45.90
41644;DHT22;44236;48.098;11.582;2023-03-23T16:15:43;20.60;45.80
41644;DHT22;44236;48.098;11.582;2023-03-23T16:18:18;20.60;45.70
41644;DHT22;44236;48.098;11.582;2023-03-23T16:20:48;20.70;45.80
41644;DHT22;44236;48.098;11.582;2023-03-23T16:23:14;20.70;45.90
41644;DHT22;44236;48.098;11.582;2023-03-23T16:25:43;20.70;45.70
41644;DHT22;44236;48.098;11.582;2023-03-23T16:28:12;20.80;45.70
41644;DHT22;44236;48.098;11.582;2023-03-23T16:30:39;20.80;45.60
41644;DHT22;44236;48.098;11.582;2023-03-23T16:33:05;20.90;45.60
41644;DHT22;44236;48.098;11.582;2023-03-23T16:35:31;20.90;45.50
41644;DHT22;44236;48.098;11.582;2023-03-23T16:37:57;20.90;45.50
41644;DHT22;44236;48.098;11.582;2023-03-23T16:40:23;20.90;45.50
41644;DHT22;44236;48.098;11.582;2023-03-23T16:42:49;21.00;45.30
41644;DHT22;44236;48.098;11.582;2023-03-23T16:45:16;21.10;45.40
41644;DHT22;44236;48.098;11.582;2023-03-23T16:47:42;21.10;45.10
41644;DHT22;44236;48.098;11.582;2023-03-23T16:50:12;21.20;45.40
41644;DHT22;44236;48.098;11.582;2023-03-23T16:52:39;21.20;45.40
41644;DHT22;44236;48.098;11.582;2023-03-23T16:55:06;21.30;45.20
41644;DHT22;44236;48.098;11.582;2023-03-23T16:57:35;21.30;45.10
41644;DHT22;44236;48.098;11.582;2023-03-23T17:00:08;21.40;45.30
41644;DHT22;44236;48.098;11.582;2023-03-23T17:02:35;21.40;44.80
41644;DHT22;44236;48.098;11.582;2023-03-23T17:05:01;21.50;45.00
41644;DHT22;44236;48.098;11.582;2023-03-23T17:07:27;21.60;45.00
41644;DHT22;44236;48.098;11.582;2023-03-23T17:09:53;21.60;44.90
41644;DHT22;44236;48.098;11.582;2023-03-23T17:12:19;21.60;44.80
41644;DHT22;44236;48.098;11.582;2023-03-23T17:14:45;21.60;45.00
41644;DHT22;44236;48.098;11.582;2023-03-23T17:17:12;21.60;44.70
41644;DHT22;44236;48.098;11.582;2023-03-23T17:19:38;21.70;44.90
41644;DHT22;44236;48.098;11.582;2023-03-23T17:22:04;21.70;44.80
41644;DHT22;44236;48.098;11.582;2023-03-23T17:24:29;21.70;45.10
41644;DHT22;44236;48.098;11.582;2023-03-23T17:26:55;21.60;45.20
41644;DHT22;44236;48.098;11.582;2023-03-23T17:29:21;21.70;45.40
41644;DHT22;44236;48.098;11.582;2023-03-23T17:31:47;21.60;45.40
41644;DHT22;44236;48.098;11.582;2023-03-23T17:34:13;21.60;45.50
41644;DHT22;44236;48.098;11.582;2023-03-23T17:36:39;21.60;45.50